Time;durP1;ratioP1;P1;durP2;ratioP2;P2;SDS_P1;SDS_P2;PMS_P1;PMS_P2;Temp;Humidity;BMP_temperature;BMP_pressure;BME280_temperature;BME280_humidity;BME280_pressure;Samples;Min_cycle;Max_cycle;Signal;HPM_P1;HPM_P2
2023/09/02 00:00:28;;;;;;;16.10;6.60;;;;;;;13.52;83.61;99889.05;219831;1256;142375;-67
2023/09/02 00:05:50;;;;;;;8.50;6.10;;;;;;;13.52;83.99;99885.63;218659;1257;140119;-66
2023/09/02 00:10:53;;;;;;;7.20;5.20;;;;;;;13.54;83.93;99886.14;220351;1256;139920;-67
2023/09/02 00:15:56;;;;;;;8.60;7.10;;;;;;;13.52;83.97;99887.35;220479;1256;139849;-67
2023/09/02 00:20:59;;;;;;;6.50;5.90;;;;;;;13.57;84.20;99892.27;220593;1256;141080;-67
2023/09/02 00:26:02;;;;;;;6.10;5.50;;;;;;;13.62;84.32;99890.20;217917;1257;139871;-66
2023/09/02 00:31:06;;;;;;;4.90;4.40;;;;;;;13.60;84.11;99886.84;219657;1255;140820;-67
2023/09/02 00:36:10;;;;;;;6.90;6.30;;;;;;;13.55;84.17;99890.42;217845;1257;140204;-66
2023/09/02 00:41:38;;;;;;;7.00;5.60;;;;;;;13.57;84.60;99884.34;218958;1256;140660;-67
2023/09/02 00:46:41;;;;;;;7.00;5.70;;;;;;;13.55;84.26;99890.64;218709;1257;141276;-66
2023/09/02 00:51:44;;;;;;;11.00;7.20;;;;;;;13.49;84.29;99882.69;217772;1257;140723;-66
2023/09/02 00:56:46;;;;;;;7.60;5.90;;;;;;;13.48;84.50;99886.65;218038;1257;140865;-66
2023/09/02 01:01:49;;;;;;;11.70;5.80;;;;;;;13.38;84.16;99890.55;217753;1259;141127;-66
2023/09/02 01:06:55;;;;;;;7.20;5.60;;;;;;;13.31;84.16;99900.89;218353;1256;140501;-66
2023/09/02 01:11:59;;;;;;;6.60;6.00;;;;;;;13.24;84.18;99894.65;218558;1256;140905;-66
2023/09/02 01:17:02;;;;;;;13.50;7.40;;;;;;;13.19;84.14;99893.34;218037;1257;139713;-65
2023/09/02 01:22:20;;;;;;;10.20;5.70;;;;;;;13.10;83.81;99900.71;217947;1257;142589;-66
2023/09/02 01:27:27;;;;;;;7.20;6.50;;;;;;;12.98;83.62;99906.00;217717;1260;141053;-66
2023/09/02 01:32:39;;;;;;;18.70;6.40;;;;;;;12.91;83.75;99910.16;217643;1259;142810;-65
2023/09/02 01:37:48;;;;;;;7.10;6.10;;;;;;;12.76;83.59;99913.06;218452;1259;140442;-65
2023/09/02 01:42:57;;;;;;;7.70;6.50;;;;;;;12.71;83.92;99916.14;217724;1259;140175;-65
2023/09/02 01:48:03;;;;;;;11.60;7.30;;;;;;;12.67;84.07;99917.73;217859;1256;140062;-65
2023/09/02 01:53:08;;;;;;;7.60;6.40;;;;;;;12.62;84.15;99919.72;218298;1260;140524;-66
2023/09/02 01:58:12;;;;;;;8.50;6.40;;;;;;;12.50;83.67;99926.14;219033;1257;141248;-66
2023/09/02 02:03:41;;;;;;;6.20;5.50;;;;;;;12.35;83.44;99930.30;218812;1257;140443;-66
2023/09/02 02:08:58;;;;;;;8.70;6.30;;;;;;;12.23;83.60;99931.76;220115;1256;140787;-67
2023/09/02 02:14:02;;;;;;;5.80;4.70;;;;;;;12.13;83.49;99929.30;220374;1257;142476;-66
2023/09/02 02:19:08;;;;;;;10.50;6.10;;;;;;;12.08;83.57;99933.56;219717;1257;142086;-66
2023/09/02 02:24:12;;;;;;;9.40;6.20;;;;;;;12.01;83.69;99931.89;217924;1257;236073;-66
2023/09/02 02:29:15;;;;;;;7.00;5.80;;;;;;;11.93;83.57;99932.80;220590;1257;143470;-66
2023/09/02 02:34:18;;;;;;;11.60;6.20;;;;;;;11.82;83.54;99939.45;220529;1256;140192;-66
2023/09/02 02:39:22;;;;;;;9.40;6.10;;;;;;;11.74;83.71;99938.62;218216;1259;140524;-65
2023/09/02 02:44:25;;;;;;;8.60;6.30;;;;;;;11.74;83.97;99942.30;218970;1257;140388;-66
2023/09/02 02:49:29;;;;;;;6.20;5.70;;;;;;;11.77;84.05;99944.79;219078;1257;141011;-65
2023/09/02 02:54:32;;;;;;;9.90;6.70;;;;;;;11.69;83.60;99945.49;217756;1256;140568;-65
2023/09/02 02:59:36;;;;;;;7.00;5.90;;;;;;;11.55;83.56;99947.10;218290;1257;140170;-65
2023/09/02 03:04:40;;;;;;;9.30;5.90;;;;;;;11.49;83.91;99949.32;217803;1260;140408;-66
2023/09/02 03:09:44;;;;;;;8.10;6.60;;;;;;;11.38;83.72;99951.16;218558;1257;139975;-66
2023/09/02 03:14:49;;;;;;;13.40;6.20;;;;;;;11.31;83.85;99961.00;217727;1257;140569;-65
2023/09/02 03:19:52;;;;;;;6.50;5.00;;;;;;;11.19;83.76;99963.15;217850;1261;141350;-65
2023/09/02 03:24:55;;;;;;;7.00;5.40;;;;;;;11.10;84.28;99966.88;217663;1257;140203;-65
2023/09/02 03:29:57;;;;;;;8.40;5.30;;;;;;;11.08;84.74;99965.67;217711;1260;141017;-65
2023/09/02 03:35:00;;;;;;;7.00;5.70;;;;;;;11.06;84.58;99962.05;218128;1257;141174;-65
2023/09/02 03:40:04;;;;;;;10.30;5.40;;;;;;;11.00;84.89;99965.66;217751;1260;140173;-66
2023/09/02 03:45:09;;;;;;;10.00;5.20;;;;;;;11.00;85.27;99965.98;218479;1256;140723;-66
2023/09/02 03:50:13;;;;;;;6.20;5.70;;;;;;;11.06;85.62;99966.09;217831;1256;140338;-66
2023/09/02 03:55:17;;;;;;;8.20;6.50;;;;;;;11.11;85.83;99963.65;217564;1260;143682;-66
2023/09/02 04:00:20;;;;;;;6.20;5.70;;;;;;;11.12;85.49;99970.77;218354;1257;141091;-66
2023/09/02 04:05:23;;;;;;;5.50;5.00;;;;;;;11.09;85.40;99974.44;219511;1257;140265;-66
2023/09/02 04:10:26;;;;;;;5.50;5.00;;;;;;;11.11;85.68;99978.71;218457;1260;142049;-66
2023/09/02 04:15:30;;;;;;;7.00;5.90;;;;;;;11.16;85.74;99979.08;218274;1256;140998;-66
2023/09/02 04:20:35;;;;;;;9.30;5.60;;;;;;;11.24;86.20;99979.90;220488;1256;140282;-67
2023/09/02 04:25:53;;;;;;;4.90;4.50;;;;;;;11.36;86.31;99987.74;220273;1256;142710;-66
2023/09/02 04:31:00;;;;;;;6.30;5.30;;;;;;;11.45;86.20;99988.05;220291;1257;140216;-66
2023/09/02 04:36:03;;;;;;;7.10;5.60;;;;;;;11.49;85.90;99985.70;218778;1257;140079;-65
2023/09/02 04:41:07;;;;;;;6.40;5.50;;;;;;;11.63;86.22;99990.23;218131;1257;140869;-66
2023/09/02 04:46:10;;;;;;;13.50;7.00;;;;;;;11.73;86.18;99998.67;218901;1257;139878;-66
2023/09/02 04:51:14;;;;;;;8.60;6.20;;;;;;;11.82;86.28;100004.94;218663;1257;140153;-65
2023/09/02 04:56:17;;;;;;;7.60;6.80;;;;;;;11.95;86.22;100007.70;219306;1256;141835;-66
2023/09/02 05:01:20;;;;;;;12.30;7.50;;;;;;;12.04;86.30;100015.52;217673;1260;140244;-66
2023/09/02 05:06:23;;;;;;;6.40;5.80;;;;;;;12.17;86.63;100009.70;218393;1260;140663;-67
2023/09/02 05:11:27;;;;;;;7.20;5.70;;;;;;;12.25;86.14;100011.01;217890;1260;140072;-65
2023/09/02 05:16:31;;;;;;;8.40;7.50;;;;;;;12.31;86.05;100007.05;217959;1257;141077;-65
2023/09/02 05:21:37;;;;;;;8.50;5.40;;;;;;;12.40;86.40;99996.48;217607;1262;141945;-65
2023/09/02 05:26:42;;;;;;;7.70;6.80;;;;;;;12.57;87.12;100003.30;218223;1261;140007;-65
2023/09/02 05:31:46;;;;;;;10.70;6.70;;;;;;;12.81;87.07;100000.73;218198;1257;140932;-64
2023/09/02 05:36:49;;;;;;;11.20;7.40;;;;;;;12.94;87.30;100005.95;217695;1257;141299;-65
2023/09/02 05:41:52;;;;;;;7.80;7.10;;;;;;;13.08;87.48;100014.48;218983;1257;140915;-65
2023/09/02 05:46:56;;;;;;;9.20;7.50;;;;;;;13.28;87.68;100030.23;217562;1260;140961;-65
2023/09/02 05:51:59;;;;;;;11.20;8.60;;;;;;;13.49;87.89;100027.20;218685;1257;140754;-65
2023/09/02 05:57:03;;;;;;;11.30;9.20;;;;;;;13.72;88.24;100037.33;217983;1258;140881;-65
2023/09/02 06:02:06;;;;;;;16.10;10.80;;;;;;;13.96;88.11;100038.06;219748;1257;140938;-64
2023/09/02 06:07:09;;;;;;;14.30;10.30;;;;;;;14.21;88.13;100035.67;218243;1257;142086;-64
2023/09/02 06:12:12;;;;;;;17.50;10.40;;;;;;;14.41;88.16;100044.61;220352;1256;140423;-64
2023/09/02 06:17:16;;;;;;;17.10;12.30;;;;;;;14.59;88.11;100048.06;218182;1260;141708;-64
2023/09/02 06:22:21;;;;;;;13.10;11.70;;;;;;;14.72;87.81;100047.39;219733;1260;142854;-65
2023/09/02 06:27:24;;;;;;;18.70;11.00;;;;;;;14.91;87.91;100053.85;220225;1257;140365;-65
2023/09/02 06:32:27;;;;;;;12.50;9.80;;;;;;;15.13;87.67;100056.61;219727;1257;140932;-64
2023/09/02 06:37:31;;;;;;;12.60;11.20;;;;;;;15.40;87.54;100062.98;217770;1261;141075;-64
2023/09/02 06:42:34;;;;;;;18.40;11.00;;;;;;;15.73;87.38;100061.17;218535;1262;141453;-64
2023/09/02 06:47:39;;;;;;;18.80;11.10;;;;;;;16.31;86.90;100070.79;217491;1260;140633;-64
2023/09/02 06:52:42;;;;;;;13.50;10.90;;;;;;;17.17;86.07;100076.86;217910;1257;141154;-64
2023/09/02 06:57:45;;;;;;;18.80;12.80;;;;;;;17.76;84.65;100075.47;217309;1258;140148;-64
2023/09/02 07:02:48;;;;;;;18.30;11.80;;;;;;;18.20;83.79;100079.54;217439;1262;140426;-64
2023/09/02 07:07:52;;;;;;;15.30;11.70;;;;;;;18.71;82.14;100086.41;218728;1257;140568;-64
2023/09/02 07:12:55;;;;;;;14.20;11.80;;;;;;;19.52;81.55;100094.34;217447;1260;140725;-64
2023/09/02 07:17:59;;;;;;;12.50;9.20;;;;;;;20.37;80.23;100098.17;217562;1257;140705;-63
2023/09/02 07:23:07;;;;;;;11.30;10.20;;;;;;;20.84;78.48;100104.20;218071;1262;139918;-63
2023/09/02 07:28:11;;;;;;;14.20;11.50;;;;;;;21.49;77.50;100105.90;217573;1262;139997;-63
2023/09/02 07:33:14;;;;;;;14.40;9.90;;;;;;;21.59;75.83;100110.57;218548;1260;140816;-63
2023/09/02 07:38:18;;;;;;;14.00;9.60;;;;;;;21.56;74.82;100119.56;218550;1260;140332;-63
2023/09/02 07:43:22;;;;;;;10.30;8.60;;;;;;;21.51;74.30;100127.24;218127;1261;140224;-63
2023/09/02 07:48:26;;;;;;;14.20;7.70;;;;;;;21.84;74.72;100134.69;217969;1257;139564;-62
2023/09/02 07:53:30;;;;;;;13.40;8.50;;;;;;;22.44;73.99;100139.19;219752;1257;141487;-64
2023/09/02 07:58:34;;;;;;;10.80;9.00;;;;;;;22.96;73.20;100141.83;218068;1260;140132;-64
2023/09/02 08:03:38;;;;;;;8.40;7.40;;;;;;;23.48;72.00;100149.23;218680;1260;139699;-64
2023/09/02 08:08:41;;;;;;;8.60;7.90;;;;;;;23.64;70.40;100154.73;219179;1257;141209;-65
2023/09/02 08:13:44;;;;;;;7.30;6.50;;;;;;;23.67;69.75;100156.00;220464;1257;140232;-65
2023/09/02 08:18:49;;;;;;;12.40;7.40;;;;;;;23.86;68.77;100164.11;220065;1257;140361;-65
2023/09/02 08:23:54;;;;;;;7.20;6.20;;;;;;;23.90;67.56;100165.91;220410;1256;140162;-65
2023/09/02 08:28:57;;;;;;;7.60;6.90;;;;;;;24.24;67.43;100173.39;219948;1257;139623;-65
2023/09/02 08:34:04;;;;;;;8.30;6.10;;;;;;;24.39;66.03;100176.23;217659;1257;140238;-64
2023/09/02 08:39:07;;;;;;;9.20;5.30;;;;;;;24.47;65.59;100187.02;218659;1257;139542;-63
2023/09/02 08:44:11;;;;;;;9.70;5.30;;;;;;;24.47;64.18;100186.60;217965;1257;139535;-65
2023/09/02 08:49:16;;;;;;;11.30;5.90;;;;;;;24.55;63.78;100192.87;217791;1257;139598;-64
2023/09/02 08:54:21;;;;;;;5.30;4.90;;;;;;;24.61;63.40;100195.52;218023;1258;139891;-66
2023/09/02 08:59:26;;;;;;;6.20;5.20;;;;;;;24.67;63.01;100196.17;218298;1257;139317;-65
2023/09/02 09:04:35;;;;;;;9.70;6.30;;;;;;;24.74;62.35;100204.73;218095;1257;139972;-64
2023/09/02 09:09:41;;;;;;;7.50;4.50;;;;;;;24.88;61.59;100203.40;217497;1257;140852;-65
2023/09/02 09:14:47;;;;;;;7.90;5.70;;;;;;;24.91;60.95;100209.41;218068;1257;139227;-65
2023/09/02 09:19:50;;;;;;;47.60;6.90;;;;;;;24.89;60.57;100207.73;217665;1257;140068;-66
2023/09/02 09:24:53;;;;;;;5.30;4.80;;;;;;;24.82;60.79;100209.90;218768;1257;141127;-65
2023/09/02 09:29:55;;;;;;;9.20;5.50;;;;;;;25.09;60.59;100215.20;217957;1258;141256;-66
2023/09/02 09:34:58;;;;;;;5.40;4.80;;;;;;;25.34;59.66;100214.02;218845;1257;139514;-66
2023/09/02 09:40:01;;;;;;;6.60;5.70;;;;;;;25.40;59.08;100216.52;217584;1257;140404;-65
2023/09/02 09:45:08;;;;;;;6.50;5.40;;;;;;;25.25;58.99;100223.94;218045;1257;139691;-66
2023/09/02 09:50:15;;;;;;;6.20;4.20;;;;;;;25.35;58.92;100222.99;218505;1257;140573;-66
2023/09/02 09:55:25;;;;;;;8.40;4.70;;;;;;;25.50;58.26;100221.17;219149;1258;139514;-66
2023/09/02 10:00:29;;;;;;;6.40;4.60;;;;;;;25.82;57.97;100220.00;218659;1258;140120;-65
2023/09/02 10:05:35;;;;;;;4.30;3.30;;;;;;;26.09;57.19;100226.93;217803;1258;140442;-70
2023/09/02 10:10:39;;;;;;;4.60;3.80;;;;;;;26.27;56.15;100224.96;220538;1256;140539;-70
2023/09/02 10:15:42;;;;;;;5.10;4.40;;;;;;;26.10;55.50;100221.59;219085;1258;140567;-67
2023/09/02 10:20:46;;;;;;;5.10;4.70;;;;;;;26.09;55.35;100224.04;220534;1257;139264;-67
2023/09/02 10:26:15;;;;;;;5.40;4.20;;;;;;;26.05;55.22;100222.33;217903;1257;139427;-67
2023/09/02 10:31:22;;;;;;;4.90;3.50;;;;;;;25.97;54.75;100226.44;218503;1256;229979;-69
2023/09/02 10:36:28;;;;;;;7.40;4.40;;;;;;;25.93;54.70;100225.41;218049;1258;140319;-70
2023/09/02 10:41:32;;;;;;;8.80;4.50;;;;;;;25.83;54.69;100223.09;217885;1261;139945;-69
2023/09/02 10:46:35;;;;;;;5.40;4.30;;;;;;;25.90;54.32;100224.27;217745;1260;139182;-68
2023/09/02 10:51:41;;;;;;;4.30;3.90;;;;;;;25.90;54.35;100222.32;218110;1257;139876;-68
2023/09/02 10:56:43;;;;;;;25.50;5.70;;;;;;;25.55;54.15;100229.81;218068;1257;302524;-66
2023/09/02 11:01:49;;;;;;;7.20;4.80;;;;;;;25.76;53.84;100229.36;217982;1257;139426;-68
2023/09/02 11:07:39;;;;;;;5.80;4.70;;;;;;;26.03;53.54;100230.10;218298;1260;139471;-68
2023/09/02 11:13:00;;;;;;;4.10;3.70;;;;;;;26.03;53.03;100238.45;218086;1256;141456;-69
2023/09/02 11:18:29;;;;;;;4.00;3.50;;;;;;;25.60;52.75;100253.45;217936;1257;162307;-68
2023/09/02 11:23:35;;;;;;;3.30;2.90;;;;;;;25.17;52.87;100254.58;218204;1257;139971;-68
2023/09/02 11:28:39;;;;;;;5.80;3.50;;;;;;;25.35;53.71;100254.19;217634;1257;140401;-70
2023/09/02 11:33:48;;;;;;;4.80;3.80;;;;;;;25.86;54.03;100254.54;218349;1257;139232;-69
2023/09/02 11:38:54;;;;;;;3.70;3.40;;;;;;;26.15;52.62;100253.89;217809;1256;139587;-70
2023/09/02 11:43:57;;;;;;;7.30;3.60;;;;;;;25.76;51.89;100251.69;219100;1257;141193;-69
2023/09/02 11:49:01;;;;;;;4.80;3.60;;;;;;;25.50;52.04;100260.64;219162;1257;139127;-71
2023/09/02 11:54:11;;;;;;;4.90;3.50;;;;;;;25.63;51.90;100258.02;218554;1257;139346;-70
2023/09/02 11:59:21;;;;;;;3.70;3.40;;;;;;;25.61;51.82;100261.52;217747;1257;139556;-69
2023/09/02 12:04:23;;;;;;;3.90;3.40;;;;;;;25.76;51.52;100255.86;218051;1257;139529;-68
2023/09/02 12:09:27;;;;;;;5.10;3.60;;;;;;;25.89;51.08;100257.30;218140;1257;139928;-69
2023/09/02 12:14:30;;;;;;;4.20;3.70;;;;;;;26.01;50.49;100264.45;217798;1257;139854;-70
2023/09/02 12:19:34;;;;;;;3.60;3.40;;;;;;;26.06;49.87;100262.66;218527;1257;139501;-70
2023/09/02 12:24:37;;;;;;;3.50;3.10;;;;;;;26.04;49.15;100260.27;219651;1257;139374;-69
2023/09/02 12:29:40;;;;;;;5.10;3.20;;;;;;;25.92;49.00;100263.20;217798;1257;140163;-69
2023/09/02 12:34:44;;;;;;;3.50;3.20;;;;;;;25.59;49.35;100266.02;217956;1257;139241;-70
2023/09/02 12:39:50;;;;;;;4.00;3.50;;;;;;;25.75;49.66;100264.98;218066;1257;140241;-69
2023/09/02 12:44:58;;;;;;;3.20;3.00;;;;;;;26.00;49.34;100266.11;217948;1260;139312;-69
2023/09/02 12:50:07;;;;;;;3.60;3.30;;;;;;;26.15;49.09;100266.23;219082;1257;139750;-70
2023/09/02 12:55:13;;;;;;;4.30;3.40;;;;;;;26.15;48.73;100268.91;217666;1257;140496;-70
2023/09/02 13:00:18;;;;;;;4.90;3.80;;;;;;;26.13;48.71;100264.27;217907;1257;139465;-71
2023/09/02 13:05:22;;;;;;;3.20;2.90;;;;;;;26.13;48.62;100261.13;217698;1257;140582;-70
2023/09/02 13:10:26;;;;;;;3.90;3.50;;;;;;;26.11;48.10;100263.70;217661;1257;139839;-70
2023/09/02 13:15:32;;;;;;;5.10;2.90;;;;;;;26.10;47.87;100264.77;218058;1256;140558;-70
2023/09/02 13:20:36;;;;;;;3.20;2.90;;;;;;;25.92;47.46;100265.55;217466;1260;139459;-71
2023/09/02 13:25:42;;;;;;;3.30;3.00;;;;;;;25.88;47.46;100260.45;217852;1259;139826;-71
2023/09/02 13:30:56;;;;;;;2.80;2.40;;;;;;;25.88;47.40;100259.42;218185;1257;140202;-71
2023/09/02 13:36:02;;;;;;;2.80;2.60;;;;;;;25.96;47.11;100262.46;218142;1257;139660;-69
2023/09/02 13:41:09;;;;;;;2.50;2.00;;;;;;;26.08;46.77;100262.65;218608;1256;141318;-70
2023/09/02 13:46:14;;;;;;;2.80;2.60;;;;;;;26.17;46.57;100260.25;217106;1256;140362;-69
2023/09/02 13:51:22;;;;;;;3.20;2.10;;;;;;;26.20;46.09;100260.89;217342;1258;141453;-71
2023/09/02 13:56:26;;;;;;;3.30;2.60;;;;;;;26.10;45.52;100264.15;218557;1257;139910;-70
2023/09/02 14:01:30;;;;;;;3.10;2.60;;;;;;;26.07;45.52;100259.85;217620;1259;139429;-69
2023/09/02 14:06:34;;;;;;;2.90;2.70;;;;;;;26.07;45.51;100259.56;218302;1256;140144;-70
2023/09/02 14:11:37;;;;;;;3.30;2.40;;;;;;;26.11;45.42;100261.84;218486;1257;139472;-69
2023/09/02 14:16:42;;;;;;;2.70;2.50;;;;;;;26.11;45.41;100260.68;219635;1256;141082;-66
2023/09/02 14:21:49;;;;;;;2.50;2.40;;;;;;;25.86;45.27;100262.73;218320;1258;139727;-68
2023/09/02 14:27:11;;;;;;;2.90;2.50;;;;;;;25.61;45.24;100259.83;218919;1256;140603;-71
2023/09/02 14:32:17;;;;;;;3.20;3.00;;;;;;;25.62;45.28;100261.73;218625;1257;139695;-68
2023/09/02 14:37:20;;;;;;;3.60;2.60;;;;;;;25.53;45.09;100268.25;218216;1257;140137;-67
2023/09/02 14:42:36;;;;;;;2.90;2.70;;;;;;;25.34;45.23;100274.16;218331;1257;139211;-69
2023/09/02 14:47:45;;;;;;;3.50;3.10;;;;;;;25.03;45.46;100277.80;218536;1257;139650;-69
2023/09/02 14:52:52;;;;;;;;;;;;;;;24.89;45.95;100276.02;217739;1260;139457;-69
2023/09/02 14:58:03;;;;;;;2.70;2.40;;;;;;;24.64;46.23;100278.24;218183;1258;126196;-71
2023/09/02 15:03:23;;;;;;;3.60;3.10;;;;;;;24.30;46.59;100275.51;217650;1257;139149;-71
2023/09/02 15:08:35;;;;;;;4.20;2.60;;;;;;;24.17;47.17;100277.40;218852;1257;139982;-69
2023/09/02 15:13:39;;;;;;;4.00;2.80;;;;;;;24.11;47.71;100280.39;217651;1257;139593;-70
2023/09/02 15:18:43;;;;;;;4.90;3.10;;;;;;;23.94;47.64;100280.17;218009;1256;139216;-67
2023/09/02 15:23:46;;;;;;;3.90;3.50;;;;;;;23.76;47.97;100284.92;217637;1259;139772;-68
2023/09/02 15:28:51;;;;;;;15.80;11.40;;;;;;;23.59;48.70;100292.27;218288;1258;141837;-68
2023/09/02 15:33:56;;;;;;;5.80;5.10;;;;;;;23.46;48.96;100297.23;217467;1260;140464;-68
2023/09/02 15:39:02;;;;;;;6.70;6.10;;;;;;;23.27;50.26;100298.04;217928;1256;140111;-69
2023/09/02 15:44:06;;;;;;;10.80;8.80;;;;;;;23.11;50.65;100299.08;218692;1256;140403;-68
2023/09/02 15:49:10;;;;;;;6.70;5.90;;;;;;;22.99;51.18;100292.64;217856;1256;139940;-70
2023/09/02 15:54:13;;;;;;;7.10;6.40;;;;;;;22.96;51.58;100293.13;219450;1257;139813;-68
2023/09/02 15:59:17;;;;;;;10.20;5.40;;;;;;;22.96;52.17;100288.02;218134;1256;139326;-68
2023/09/02 16:04:21;;;;;;;5.50;5.00;;;;;;;22.91;52.33;100291.50;218255;1258;139708;-68
2023/09/02 16:09:25;;;;;;;6.80;5.10;;;;;;;22.77;52.54;100293.63;217814;1260;139179;-68
2023/09/02 16:14:31;;;;;;;3.70;3.50;;;;;;;22.56;53.52;100291.19;218156;1260;139204;-67
2023/09/02 16:19:35;;;;;;;31.40;6.40;;;;;;;22.37;54.26;100296.47;218878;1257;141560;-69
2023/09/02 16:24:42;;;;;;;5.70;3.90;;;;;;;22.18;55.25;100299.70;218591;1257;139572;-68
2023/09/02 16:29:45;;;;;;;3.30;3.10;;;;;;;22.00;56.21;100303.25;218123;1257;139379;-73
2023/09/02 16:34:52;;;;;;;4.50;3.20;;;;;;;21.80;56.64;100310.38;218055;1256;140265;-69
2023/09/02 16:39:58;;;;;;;4.00;3.70;;;;;;;21.62;57.17;100311.64;219118;1256;140184;-69
2023/09/02 16:45:08;;;;;;;4.80;3.80;;;;;;;21.45;57.74;100308.56;219141;1256;139413;-73
2023/09/02 16:50:17;;;;;;;4.30;3.90;;;;;;;21.28;58.54;100312.44;217570;1260;140490;-71
2023/09/02 16:55:27;;;;;;;4.50;3.70;;;;;;;21.12;59.08;100318.52;217920;1256;139121;-72
2023/09/02 17:00:35;;;;;;;4.40;4.00;;;;;;;20.94;59.57;100319.13;217737;1259;139299;-68
2023/09/02 17:05:41;;;;;;;5.70;4.40;;;;;;;20.72;59.82;100324.95;218270;1257;140549;-69
2023/09/02 17:10:45;;;;;;;4.10;3.70;;;;;;;20.33;60.03;100317.69;217808;1260;140730;-69
2023/09/02 17:15:49;;;;;;;5.60;3.80;;;;;;;20.11;60.88;100319.34;217701;1257;141640;-69
2023/09/02 17:20:52;;;;;;;11.60;6.00;;;;;;;19.95;61.50;100315.55;217172;1256;140678;-69
2023/09/02 17:25:58;;;;;;;4.40;3.70;;;;;;;19.77;61.76;100315.65;217438;1256;140549;-69
2023/09/02 17:31:08;;;;;;;5.10;4.70;;;;;;;19.57;62.10;100315.61;217903;1258;140344;-69
2023/09/02 17:36:13;;;;;;;4.40;3.20;;;;;;;19.32;62.54;100320.00;217685;1256;140598;-68
2023/09/02 17:41:17;;;;;;;4.80;3.90;;;;;;;19.07;63.13;100321.02;217586;1260;141180;-69
2023/09/02 17:46:21;;;;;;;4.30;3.80;;;;;;;18.89;63.57;100333.70;218237;1256;142129;-68
2023/09/02 17:51:25;;;;;;;4.50;4.10;;;;;;;18.71;63.96;100333.30;217309;1260;140402;-68
2023/09/02 17:56:30;;;;;;;3.60;3.30;;;;;;;18.45;64.29;100340.19;218831;1256;235554;-70
2023/09/02 18:01:33;;;;;;;4.70;3.80;;;;;;;18.16;64.74;100344.23;218107;1256;140493;-71
2023/09/02 18:06:38;;;;;;;5.40;3.50;;;;;;;17.87;65.30;100349.56;218937;1256;140695;-72
2023/09/02 18:11:41;;;;;;;4.10;3.70;;;;;;;17.66;65.75;100352.55;219519;1256;140069;-69
2023/09/02 18:16:45;;;;;;;10.50;3.70;;;;;;;17.60;66.32;100357.95;220392;1256;140607;-69
2023/09/02 18:21:53;;;;;;;5.00;4.30;;;;;;;17.53;66.74;100353.51;219297;1256;140643;-70
2023/09/02 18:26:56;;;;;;;5.10;4.70;;;;;;;17.47;67.14;100363.79;220175;1256;140605;-71
2023/09/02 18:32:01;;;;;;;5.20;4.70;;;;;;;17.42;67.72;100369.92;218281;1257;140983;-69
2023/09/02 18:37:08;;;;;;;4.50;4.10;;;;;;;17.36;68.08;100371.63;218459;1257;140134;-69
2023/09/02 18:42:13;;;;;;;8.50;4.60;;;;;;;17.20;68.54;100369.92;218224;1256;140609;-69
2023/09/02 18:47:18;;;;;;;5.90;3.80;;;;;;;17.02;69.22;100371.91;217589;1256;141131;-69
2023/09/02 18:52:22;;;;;;;5.20;4.20;;;;;;;16.91;69.85;100374.58;219379;1256;141831;-70
2023/09/02 18:57:28;;;;;;;4.30;4.00;;;;;;;16.80;70.22;100381.63;217956;1256;140505;-70
2023/09/02 19:02:34;;;;;;;6.70;4.10;;;;;;;16.74;70.82;100377.13;218517;1257;141231;-70
2023/09/02 19:07:39;;;;;;;7.20;4.30;;;;;;;16.67;71.29;100386.92;217610;1257;141365;-68
2023/09/02 19:12:44;;;;;;;4.90;4.50;;;;;;;16.67;71.66;100397.91;217617;1256;139896;-70
2023/09/02 19:17:48;;;;;;;6.10;4.60;;;;;;;16.62;71.45;100406.79;217525;1258;140883;-69
2023/09/02 19:22:55;;;;;;;8.70;5.50;;;;;;;16.60;71.89;100400.35;217557;1257;140362;-69
2023/09/02 19:28:04;;;;;;;5.00;4.50;;;;;;;16.60;72.06;100408.00;217766;1257;139995;-69
2023/09/02 19:33:10;;;;;;;4.40;4.00;;;;;;;16.55;72.05;100409.84;217792;1256;142085;-70
2023/09/02 19:38:14;;;;;;;4.70;4.30;;;;;;;16.41;71.98;100417.98;217998;1257;141839;-67
2023/09/02 19:43:23;;;;;;;8.30;5.20;;;;;;;16.25;72.22;100418.16;217896;1256;140611;-68
2023/09/02 19:48:27;;;;;;;5.40;4.20;;;;;;;16.13;72.63;100417.46;218335;1260;141098;-69
2023/09/02 19:53:29;;;;;;;4.50;4.20;;;;;;;16.04;73.14;100417.69;218169;1256;141869;-69
2023/09/02 19:58:35;;;;;;;4.90;4.40;;;;;;;15.96;73.66;100425.50;218010;1257;141381;-68
2023/09/02 20:03:52;;;;;;;6.30;4.20;;;;;;;15.89;73.81;100429.27;218701;1259;139932;-69
2023/09/02 20:08:55;;;;;;;4.70;4.30;;;;;;;15.82;74.04;100422.79;217521;1259;140126;-69
2023/09/02 20:14:03;;;;;;;5.80;4.20;;;;;;;15.75;74.56;100427.77;220053;1257;140413;-69
2023/09/02 20:19:06;;;;;;;5.20;4.70;;;;;;;15.75;74.89;100433.25;217348;1257;142482;-68
2023/09/02 20:24:12;;;;;;;4.70;4.30;;;;;;;15.76;75.06;100432.50;218909;1261;141051;-67
2023/09/02 20:29:18;;;;;;;6.30;4.90;;;;;;;15.78;75.26;100434.84;217640;1256;140616;-68
2023/09/02 20:34:23;;;;;;;5.60;4.90;;;;;;;15.75;75.34;100434.65;218627;1256;141030;-69
2023/09/02 20:39:27;;;;;;;6.80;5.00;;;;;;;15.69;75.17;100435.33;218401;1261;141257;-70
2023/09/02 20:44:32;;;;;;;5.70;5.30;;;;;;;15.65;75.56;100437.48;218143;1256;140423;-70
2023/09/02 20:49:35;;;;;;;5.80;5.30;;;;;;;15.62;75.57;100438.35;218443;1261;141601;-69
2023/09/02 20:54:38;;;;;;;5.40;4.70;;;;;;;15.51;75.71;100444.81;218413;1259;140229;-67
2023/09/02 20:59:43;;;;;;;7.00;5.70;;;;;;;15.39;75.85;100444.42;218549;1257;140248;-68
2023/09/02 21:04:49;;;;;;;6.20;5.50;;;;;;;15.33;76.14;100441.82;218413;1257;140327;-68
2023/09/02 21:09:55;;;;;;;6.80;6.00;;;;;;;15.33;76.27;100442.69;218182;1256;140331;-68
2023/09/02 21:15:01;;;;;;;8.30;5.60;;;;;;;15.27;76.25;100444.98;217856;1256;140824;-69
2023/09/02 21:20:06;;;;;;;8.80;6.40;;;;;;;15.18;76.45;100435.52;218544;1256;143710;-68
2023/09/02 21:25:11;;;;;;;6.90;5.60;;;;;;;15.11;76.56;100429.94;219016;1257;140050;-68
2023/09/02 21:30:14;;;;;;;6.10;5.50;;;;;;;15.01;76.45;100421.36;217753;1256;140333;-68
2023/09/02 21:35:18;;;;;;;6.90;6.00;;;;;;;14.89;76.65;100423.98;219393;1257;140060;-68
2023/09/02 21:40:21;;;;;;;6.60;5.80;;;;;;;14.84;76.86;100425.67;218318;1257;141282;-68
2023/09/02 21:45:24;;;;;;;5.70;5.20;;;;;;;14.75;76.78;100425.64;218680;1257;139994;-67
2023/09/02 21:50:27;;;;;;;7.70;6.90;;;;;;;14.61;76.83;100424.68;219304;1260;139928;-69
2023/09/02 21:55:30;;;;;;;8.00;7.10;;;;;;;14.49;77.11;100425.66;218543;1259;140684;-68
2023/09/02 22:00:33;;;;;;;7.10;6.50;;;;;;;14.42;77.21;100423.09;218710;1259;141228;-67
2023/09/02 22:05:36;;;;;;;7.00;5.80;;;;;;;14.36;77.08;100427.30;220367;1257;141129;-68
2023/09/02 22:10:39;;;;;;;7.70;6.50;;;;;;;14.22;76.96;100426.79;218990;1256;140301;-68
2023/09/02 22:15:41;;;;;;;6.80;6.20;;;;;;;14.08;77.13;100428.00;220510;1257;140255;-68
2023/09/02 22:20:45;;;;;;;11.60;6.10;;;;;;;14.02;77.09;100429.06;219569;1260;141550;-68
2023/09/02 22:25:50;;;;;;;6.80;5.70;;;;;;;13.96;76.96;100425.94;218867;1257;141121;-68
2023/09/02 22:30:54;;;;;;;6.10;5.20;;;;;;;13.80;76.91;100426.19;219557;1257;140645;-67
2023/09/02 22:35:58;;;;;;;6.70;6.10;;;;;;;13.63;77.21;100427.46;218800;1257;140423;-68
2023/09/02 22:41:02;;;;;;;10.50;6.70;;;;;;;13.57;77.48;100432.95;218967;1257;140557;-68
2023/09/02 22:46:08;;;;;;;11.20;7.10;;;;;;;13.49;77.57;100434.62;217638;1257;140677;-68
2023/09/02 22:51:12;;;;;;;7.80;7.10;;;;;;;13.44;78.05;100432.17;218131;1259;140700;-70
2023/09/02 22:56:15;;;;;;;13.50;8.00;;;;;;;13.41;78.13;100428.48;216790;1260;1388848;-70
2023/09/02 23:01:19;;;;;;;7.70;6.90;;;;;;;13.39;78.10;100425.20;217944;1256;140550;-69
2023/09/02 23:06:24;;;;;;;8.70;7.90;;;;;;;13.33;78.09;100428.02;218517;1257;140043;-69